Time;durP1;ratioP1;P1;durP2;ratioP2;P2;SDS_P1;SDS_P2;PMS_P1;PMS_P2;Temp;Humidity;BMP_temperature;BMP_pressure;BME280_temperature;BME280_humidity;BME280_pressure;Samples;Min_cycle;Max_cycle;Signal;HPM_P1;HPM_P2
2022/03/31 00:00:30;;;;;;;13.35;5.00;;;20.00;99.90;;;;;;4991002;28;20110;-68
2022/03/31 00:02:59;;;;;;;12.23;4.32;;;19.90;99.90;;;;;;4992082;28;20022;-68
2022/03/31 00:05:26;;;;;;;16.88;5.05;;;19.90;99.90;;;;;;4994425;28;20027;-68
2022/03/31 00:07:59;;;;;;;17.95;5.05;;;20.00;99.90;;;;;;4990633;28;20054;-68
2022/03/31 00:10:35;;;;;;;12.30;5.13;;;19.90;99.90;;;;;;4990621;28;20038;-68
2022/03/31 00:13:05;;;;;;;13.10;5.07;;;19.90;99.90;;;;;;4989240;28;20557;-68
2022/03/31 00:15:33;;;;;;;15.98;5.13;;;19.90;99.90;;;;;;4990880;28;20110;-68
2022/03/31 00:18:03;;;;;;;14.50;5.50;;;19.80;99.90;;;;;;4987565;28;20032;-68
2022/03/31 00:20:31;;;;;;;13.88;5.03;;;19.80;99.90;;;;;;4994202;28;20394;-68
2022/03/31 00:22:58;;;;;;;8.82;4.38;;;19.70;99.90;;;;;;4993756;28;20490;-68
2022/03/31 00:25:26;;;;;;;10.73;4.72;;;19.60;99.90;;;;;;4990115;28;20113;-68
2022/03/31 00:27:57;;;;;;;9.57;4.00;;;19.40;99.90;;;;;;4994755;28;20027;-68
2022/03/31 00:30:26;;;;;;;10.68;4.22;;;19.30;99.90;;;;;;4990822;28;20042;-68
2022/03/31 00:32:53;;;;;;;9.60;3.90;;;19.30;99.90;;;;;;4988559;28;20136;-68
2022/03/31 00:35:20;;;;;;;11.80;4.82;;;19.30;99.90;;;;;;4989884;28;20361;-68
2022/03/31 00:37:48;;;;;;;7.57;3.67;;;19.50;99.90;;;;;;4988616;28;20737;-68
2022/03/31 00:40:18;;;;;;;12.25;4.45;;;19.70;99.90;;;;;;4992005;28;20026;-68
2022/03/31 00:42:58;;;;;;;12.50;4.93;;;20.00;99.90;;;;;;4988213;28;20046;-67
2022/03/31 00:45:34;;;;;;;11.80;4.20;;;20.00;99.90;;;;;;4991984;28;20045;-68
2022/03/31 00:48:02;;;;;;;13.63;4.68;;;20.00;99.90;;;;;;4993639;28;20117;-67
2022/03/31 00:50:31;;;;;;;11.63;4.40;;;20.00;99.90;;;;;;4992945;28;20026;-68
2022/03/31 00:52:58;;;;;;;15.20;3.63;;;20.10;99.90;;;;;;4991571;28;20037;-67
2022/03/31 00:55:25;;;;;;;11.73;4.50;;;20.10;99.90;;;;;;4985254;28;20030;-68
2022/03/31 00:57:55;;;;;;;7.10;3.13;;;20.00;99.90;;;;;;4991432;28;20036;-68
2022/03/31 01:00:23;;;;;;;9.82;3.63;;;19.80;99.90;;;;;;4988175;28;20078;-68
2022/03/31 01:02:50;;;;;;;4.78;1.95;;;19.70;99.90;;;;;;4991140;28;20030;-68
2022/03/31 01:05:18;;;;;;;5.95;2.42;;;19.50;99.90;;;;;;4989773;28;20026;-68
2022/03/31 01:07:45;;;;;;;6.15;2.53;;;19.50;99.90;;;;;;4988771;28;20077;-68
2022/03/31 01:10:14;;;;;;;4.85;2.17;;;19.30;99.90;;;;;;4985690;28;20392;-68
2022/03/31 01:12:42;;;;;;;5.65;2.22;;;19.20;99.90;;;;;;4987346;28;20026;-67
2022/03/31 01:15:14;;;;;;;7.45;2.85;;;19.00;99.90;;;;;;4990535;28;20057;-68
2022/03/31 01:17:43;;;;;;;6.97;3.08;;;19.00;99.90;;;;;;4993097;28;20403;-67
2022/03/31 01:20:16;;;;;;;9.68;2.95;;;19.00;99.90;;;;;;4982512;28;20030;-67
2022/03/31 01:22:45;;;;;;;14.13;4.15;;;19.10;99.90;;;;;;4986551;28;20028;-67
2022/03/31 01:25:14;;;;;;;11.60;4.43;;;19.10;99.90;;;;;;4987852;28;20033;-67
2022/03/31 01:27:44;;;;;;;11.57;3.55;;;19.10;99.90;;;;;;4991388;28;20039;-67
2022/03/31 01:30:15;;;;;;;15.52;4.95;;;19.20;99.90;;;;;;4984880;28;20042;-68
2022/03/31 01:32:44;;;;;;;17.48;5.85;;;19.40;99.90;;;;;;4989241;28;20027;-68
2022/03/31 01:35:12;;;;;;;10.55;4.68;;;19.40;99.90;;;;;;4991842;28;20011;-67
2022/03/31 01:37:39;;;;;;;16.58;4.53;;;19.50;99.90;;;;;;4974964;28;20031;-68
2022/03/31 01:40:07;;;;;;;15.65;5.25;;;19.60;99.90;;;;;;4975493;28;20034;-68
2022/03/31 01:42:35;;;;;;;21.08;5.18;;;19.70;99.90;;;;;;4981393;28;20038;-68
2022/03/31 01:45:03;;;;;;;24.10;6.10;;;19.70;99.90;;;;;;4974032;28;20043;-68
2022/03/31 01:47:30;;;;;;;24.27;6.47;;;19.60;99.90;;;;;;4985627;28;20018;-68
2022/03/31 01:49:58;;;;;;;22.15;7.18;;;19.30;99.90;;;;;;4993495;28;20089;-69
2022/03/31 01:52:27;;;;;;;26.00;7.55;;;19.10;99.90;;;;;;4998448;28;20041;-68
2022/03/31 01:54:54;;;;;;;36.28;7.32;;;18.90;99.90;;;;;;4996653;28;20023;-68
2022/03/31 01:57:21;;;;;;;24.05;5.13;;;18.90;99.90;;;;;;4990307;28;20093;-69
2022/03/31 01:59:49;;;;;;;32.45;7.30;;;18.90;99.90;;;;;;4987779;28;20032;-68
2022/03/31 02:02:16;;;;;;;33.47;7.38;;;18.80;99.90;;;;;;4986917;28;20037;-69
2022/03/31 02:04:43;;;;;;;23.92;7.63;;;18.80;99.90;;;;;;4988642;28;20030;-69
2022/03/31 02:07:11;;;;;;;28.85;6.95;;;18.70;99.90;;;;;;4992744;28;20042;-70
2022/03/31 02:09:39;;;;;;;24.88;7.25;;;18.50;99.90;;;;;;4996947;28;20561;-69
2022/03/31 02:12:07;;;;;;;36.83;7.88;;;18.40;99.90;;;;;;4991495;28;20062;-69
2022/03/31 02:14:37;;;;;;;24.80;8.07;;;18.30;99.90;;;;;;4993327;28;20058;-68
2022/03/31 02:17:13;;;;;;;34.42;8.38;;;18.30;99.90;;;;;;4995476;28;20095;-68
2022/03/31 02:19:40;;;;;;;28.67;6.85;;;18.30;99.90;;;;;;4997031;28;20080;-69
2022/03/31 02:22:08;;;;;;;28.83;5.45;;;18.40;99.90;;;;;;5010152;28;20034;-69
2022/03/31 02:24:35;;;;;;;29.05;5.72;;;18.60;99.90;;;;;;4995847;28;20053;-69
2022/03/31 02:27:04;;;;;;;27.35;7.38;;;18.70;99.90;;;;;;4987397;28;20080;-69
2022/03/31 02:29:31;;;;;;;24.60;5.30;;;18.90;99.90;;;;;;4994879;28;20144;-68
2022/03/31 02:31:59;;;;;;;25.60;6.07;;;19.20;99.90;;;;;;5010995;28;20113;-69
2022/03/31 02:34:26;;;;;;;27.63;5.70;;;19.50;99.90;;;;;;4995780;28;20405;-68
2022/03/31 02:36:54;;;;;;;30.55;7.95;;;19.70;99.90;;;;;;4996824;28;20104;-69
2022/03/31 02:39:21;;;;;;;24.02;5.70;;;19.90;99.90;;;;;;4991535;28;20089;-68
2022/03/31 02:41:49;;;;;;;26.65;6.35;;;20.10;99.90;;;;;;4990098;28;20030;-68
2022/03/31 02:44:16;;;;;;;28.15;6.22;;;20.30;99.90;;;;;;4983958;28;20034;-68
2022/03/31 02:46:44;;;;;;;23.02;5.85;;;20.40;99.90;;;;;;4986142;28;20077;-69
2022/03/31 02:49:11;;;;;;;28.83;5.35;;;20.40;99.90;;;;;;4985757;28;20070;-68
2022/03/31 02:51:38;;;;;;;18.75;4.85;;;20.30;99.90;;;;;;4996483;28;20051;-68
2022/03/31 02:56:50;;;;;;;21.27;4.35;;;19.70;99.90;;;;;;4985919;28;20034;-68
2022/03/31 02:59:18;;;;;;;22.35;4.38;;;19.40;99.90;;;;;;4977498;28;20018;-68
2022/03/31 03:01:45;;;;;;;24.33;5.03;;;19.40;99.90;;;;;;4982546;28;20380;-68
2022/03/31 03:04:12;;;;;;;26.95;8.13;;;19.50;99.90;;;;;;4987835;28;20498;-68
2022/03/31 03:06:40;;;;;;;38.28;9.25;;;19.40;99.90;;;;;;4989053;28;20097;-68
2022/03/31 03:09:08;;;;;;;34.00;6.45;;;19.40;99.90;;;;;;4996620;28;20073;-68
2022/03/31 03:11:36;;;;;;;30.48;7.03;;;19.40;99.90;;;;;;4994491;28;20029;-69
2022/03/31 03:14:04;;;;;;;40.08;8.13;;;19.30;99.90;;;;;;4996966;28;20054;-69
2022/03/31 03:16:32;;;;;;;27.58;7.18;;;19.30;99.90;;;;;;4992913;28;20053;-68
2022/03/31 03:18:59;;;;;;;33.67;6.90;;;19.50;99.90;;;;;;4996239;28;20022;-68
2022/03/31 03:21:26;;;;;;;32.25;7.93;;;19.50;99.90;;;;;;4990101;28;20518;-68
2022/03/31 03:23:54;;;;;;;35.78;6.40;;;19.60;99.90;;;;;;4998698;28;20208;-68
2022/03/31 03:26:21;;;;;;;32.50;6.22;;;19.80;99.90;;;;;;4991310;28;20041;-68
2022/03/31 03:28:49;;;;;;;29.08;6.88;;;19.90;99.90;;;;;;5002892;28;20022;-68
2022/03/31 03:31:16;;;;;;;30.50;5.63;;;19.90;99.90;;;;;;4995655;28;20046;-68
2022/03/31 03:33:43;;;;;;;26.77;5.38;;;19.80;99.90;;;;;;4985282;28;20418;-67
2022/03/31 03:36:12;;;;;;;23.13;5.32;;;19.70;99.90;;;;;;4990744;28;20041;-68
2022/03/31 03:38:40;;;;;;;28.83;5.43;;;19.80;99.90;;;;;;4990116;28;20396;-68
2022/03/31 03:41:09;;;;;;;29.23;5.95;;;19.80;99.90;;;;;;5007449;28;20030;-68
2022/03/31 03:43:36;;;;;;;23.42;4.88;;;19.90;99.90;;;;;;5009872;28;20392;-68
2022/03/31 03:46:04;;;;;;;26.75;5.05;;;20.00;99.90;;;;;;4991596;28;20618;-67
2022/03/31 03:48:31;;;;;;;22.65;4.43;;;20.10;99.90;;;;;;5008519;28;20343;-68
2022/03/31 03:50:59;;;;;;;26.42;4.85;;;20.30;99.90;;;;;;4995068;28;20042;-68
2022/03/31 03:53:27;;;;;;;26.20;4.85;;;20.40;99.90;;;;;;5001432;28;20030;-68
2022/03/31 03:55:54;;;;;;;27.10;5.78;;;20.50;99.90;;;;;;5005389;28;20109;-68
2022/03/31 03:58:21;;;;;;;29.40;5.57;;;20.60;99.90;;;;;;4989785;28;20081;-68
2022/03/31 04:00:49;;;;;;;27.35;6.82;;;20.60;99.90;;;;;;4994219;28;20018;-68
2022/03/31 04:03:17;;;;;;;21.05;5.80;;;20.60;99.90;;;;;;4990297;28;20096;-66
2022/03/31 04:05:45;;;;;;;24.23;5.80;;;20.70;99.90;;;;;;4991770;28;20391;-66
2022/03/31 04:08:14;;;;;;;23.92;5.15;;;20.70;99.90;;;;;;4989523;28;20041;-69
2022/03/31 04:10:42;;;;;;;22.80;4.35;;;20.50;99.90;;;;;;4991791;28;20038;-68
2022/03/31 04:13:09;;;;;;;18.67;4.60;;;19.80;99.90;;;;;;4992215;28;20081;-67
2022/03/31 04:15:36;;;;;;;22.52;4.60;;;18.80;99.90;;;;;;4985822;28;20037;-69
2022/03/31 04:18:05;;;;;;;25.02;5.32;;;18.50;99.90;;;;;;4993889;28;20030;-69
2022/03/31 04:20:33;;;;;;;35.50;6.63;;;18.50;99.90;;;;;;4994128;28;20157;-69
2022/03/31 04:23:01;;;;;;;29.88;5.78;;;18.60;99.90;;;;;;4989130;28;20050;-68
2022/03/31 04:25:28;;;;;;;24.40;5.80;;;18.70;99.90;;;;;;4995700;28;20015;-68
2022/03/31 04:27:55;;;;;;;38.40;6.53;;;18.80;99.90;;;;;;4989898;28;20138;-69
2022/03/31 04:30:23;;;;;;;33.15;6.30;;;18.70;99.90;;;;;;4999579;28;20084;-69
2022/03/31 04:32:51;;;;;;;38.05;6.90;;;18.70;99.90;;;;;;4991124;28;20018;-69
2022/03/31 04:35:19;;;;;;;31.17;7.00;;;18.60;99.90;;;;;;4989888;28;20026;-68
2022/03/31 04:37:47;;;;;;;39.75;7.22;;;18.70;99.90;;;;;;4989936;28;20018;-68
2022/03/31 04:40:14;;;;;;;20.20;4.40;;;18.90;99.90;;;;;;4992374;28;20038;-70
2022/03/31 04:42:42;;;;;;;21.70;5.10;;;19.20;99.90;;;;;;4989237;28;20088;-68
2022/03/31 04:45:09;;;;;;;20.30;3.58;;;19.40;99.90;;;;;;4987416;28;20043;-69
2022/03/31 04:47:37;;;;;;;24.95;4.88;;;19.60;99.90;;;;;;4999981;28;20022;-68
2022/03/31 04:50:05;;;;;;;19.02;4.07;;;19.70;99.90;;;;;;4993893;28;20034;-67
2022/03/31 04:52:33;;;;;;;20.63;4.63;;;19.90;99.90;;;;;;4975730;28;20081;-69
2022/03/31 04:55:00;;;;;;;19.30;4.68;;;20.00;99.90;;;;;;4990800;28;20030;-69
2022/03/31 04:57:27;;;;;;;22.95;4.72;;;20.00;99.90;;;;;;4987055;28;20095;-70
2022/03/31 04:59:55;;;;;;;27.77;6.35;;;20.20;99.90;;;;;;4981166;28;20018;-70
2022/03/31 05:02:22;;;;;;;28.88;5.38;;;20.20;99.90;;;;;;4976191;28;20037;-70
2022/03/31 05:04:49;;;;;;;22.20;3.33;;;20.10;99.90;;;;;;4991960;28;20027;-71
2022/03/31 05:07:17;;;;;;;20.50;4.22;;;20.00;99.90;;;;;;4993096;28;20117;-70
2022/03/31 05:09:45;;;;;;;27.25;4.85;;;19.90;99.90;;;;;;4989542;28;20027;-70
2022/03/31 05:12:15;;;;;;;24.95;5.13;;;19.90;99.90;;;;;;4985281;28;20035;-71
2022/03/31 05:14:42;;;;;;;20.83;3.33;;;19.90;99.90;;;;;;4977286;28;20073;-70
2022/03/31 05:17:10;;;;;;;18.58;3.90;;;20.00;99.90;;;;;;4988127;28;20414;-69
2022/03/31 05:19:38;;;;;;;18.13;3.15;;;19.90;99.90;;;;;;4978062;28;20043;-70
2022/03/31 05:22:06;;;;;;;17.75;3.53;;;19.90;99.90;;;;;;4992975;28;20105;-71
2022/03/31 05:24:33;;;;;;;18.90;3.03;;;20.00;99.90;;;;;;4991477;28;20064;-71
2022/03/31 05:27:00;;;;;;;26.88;4.18;;;20.00;99.90;;;;;;4987910;28;20564;-72
2022/03/31 05:29:27;;;;;;;24.63;4.80;;;20.00;99.90;;;;;;4984342;28;20038;-70
2022/03/31 05:31:57;;;;;;;19.10;3.83;;;20.00;99.90;;;;;;4984743;28;20023;-71
2022/03/31 05:34:25;;;;;;;23.67;4.50;;;19.40;99.90;;;;;;5003994;28;20519;-70
2022/03/31 05:36:52;;;;;;;22.50;4.40;;;18.90;99.90;;;;;;4994884;28;20525;-70
2022/03/31 05:39:20;;;;;;;22.15;4.63;;;18.70;99.90;;;;;;4987296;28;20046;-70
2022/03/31 05:41:47;;;;;;;28.15;4.82;;;18.60;99.90;;;;;;4992374;28;20068;-71
2022/03/31 05:44:14;;;;;;;27.50;4.65;;;18.50;99.90;;;;;;4979345;28;20026;-69
2022/03/31 05:46:44;;;;;;;23.05;4.22;;;18.40;99.90;;;;;;4991197;28;20054;-70
2022/03/31 05:49:11;;;;;;;31.65;6.07;;;18.40;99.90;;;;;;4993160;28;20113;-70
2022/03/31 05:51:39;;;;;;;18.95;3.60;;;18.50;99.90;;;;;;4987095;28;20031;-70
2022/03/31 05:54:06;;;;;;;26.88;5.78;;;18.70;99.90;;;;;;4974506;28;20361;-69
2022/03/31 05:56:34;;;;;;;19.67;4.95;;;18.60;99.90;;;;;;4976260;28;20046;-70
2022/03/31 05:59:02;;;;;;;24.55;5.10;;;18.20;99.90;;;;;;4981930;28;20022;-69
2022/03/31 06:01:38;;;;;;;30.02;5.70;;;18.20;99.90;;;;;;4987229;28;20126;-69
2022/03/31 06:04:05;;;;;;;27.83;5.88;;;18.20;99.90;;;;;;4990140;28;20502;-68
2022/03/31 06:06:32;;;;;;;38.80;5.53;;;18.30;99.90;;;;;;4990907;28;20034;-69
2022/03/31 06:09:00;;;;;;;29.17;5.80;;;18.40;99.90;;;;;;4991901;28;20030;-69
2022/03/31 06:11:27;;;;;;;27.58;6.18;;;18.40;99.90;;;;;;4983611;28;20018;-69
2022/03/31 06:13:54;;;;;;;20.00;2.88;;;17.50;99.90;;;;;;4999063;28;20038;-69
2022/03/31 06:16:22;;;;;;;19.73;3.30;;;16.90;99.90;;;;;;4984858;28;20034;-69
2022/03/31 06:18:49;;;;;;;17.33;3.53;;;16.60;99.90;;;;;;4977156;28;20034;-68
2022/03/31 06:21:16;;;;;;;12.30;2.83;;;16.60;99.90;;;;;;4985799;28;20081;-68
2022/03/31 06:23:43;;;;;;;21.33;3.30;;;16.50;99.90;;;;;;5001623;28;20038;-68
2022/03/31 06:26:11;;;;;;;17.60;3.63;;;16.60;99.90;;;;;;4987046;28;20037;-68
2022/03/31 06:28:38;;;;;;;17.85;4.28;;;16.60;99.90;;;;;;4982793;28;20473;-69
2022/03/31 06:31:05;;;;;;;16.38;3.08;;;16.70;99.90;;;;;;5001313;28;20038;-68
2022/03/31 06:33:33;;;;;;;22.63;4.50;;;16.70;99.90;;;;;;4990131;28;20634;-68
2022/03/31 06:36:00;;;;;;;21.45;4.13;;;16.80;99.90;;;;;;4985128;28;20030;-68
2022/03/31 06:38:27;;;;;;;19.33;3.75;;;16.70;99.90;;;;;;4990167;28;20571;-70
2022/03/31 06:41:06;;;;;;;19.23;4.85;;;16.60;99.90;;;;;;5007061;28;20030;-69
2022/03/31 06:43:41;;;;;;;14.95;3.00;;;16.50;99.90;;;;;;4985942;28;20588;-68
2022/03/31 06:46:10;;;;;;;16.38;3.28;;;16.40;99.90;;;;;;4980627;28;20139;-68
2022/03/31 06:48:38;;;;;;;21.05;3.08;;;16.40;99.90;;;;;;4987357;28;23170;-68
2022/03/31 06:51:08;;;;;;;15.45;2.47;;;16.40;99.90;;;;;;5001737;28;20054;-68
2022/03/31 06:53:39;;;;;;;18.42;2.60;;;16.40;99.90;;;;;;4992027;28;20034;-69
2022/03/31 06:56:07;;;;;;;20.20;3.67;;;16.40;99.90;;;;;;4984488;28;20554;-68
2022/03/31 06:58:35;;;;;;;21.83;4.43;;;16.50;99.90;;;;;;4990986;28;20039;-68
2022/03/31 07:01:04;;;;;;;24.88;4.82;;;16.50;99.90;;;;;;4993909;28;20618;-69
2022/03/31 07:03:31;;;;;;;32.63;5.45;;;16.70;99.90;;;;;;4989528;28;20019;-69
2022/03/31 07:05:58;;;;;;;20.95;4.88;;;17.10;99.90;;;;;;4987888;28;20026;-69
2022/03/31 07:08:26;;;;;;;21.77;5.32;;;17.40;99.90;;;;;;4988424;28;20497;-69
2022/03/31 07:10:53;;;;;;;23.48;4.32;;;17.50;99.90;;;;;;4993388;28;20062;-69
2022/03/31 07:13:21;;;;;;;24.15;4.88;;;17.60;99.90;;;;;;4987161;28;20038;-69
2022/03/31 07:15:48;;;;;;;23.90;4.55;;;17.60;99.90;;;;;;4994019;28;20032;-72
2022/03/31 07:18:16;;;;;;;24.25;5.93;;;17.80;99.90;;;;;;4978428;28;20391;-70
2022/03/31 07:20:43;;;;;;;24.08;4.90;;;17.90;99.90;;;;;;4992778;28;20423;-68
2022/03/31 07:23:10;;;;;;;28.80;4.90;;;17.90;99.90;;;;;;4978591;28;20086;-68
2022/03/31 07:25:37;;;;;;;24.33;5.93;;;18.00;99.90;;;;;;4976178;28;20038;-70
2022/03/31 07:28:05;;;;;;;25.35;4.40;;;18.10;99.90;;;;;;4985719;28;20386;-68
2022/03/31 07:30:32;;;;;;;28.48;6.32;;;18.10;99.90;;;;;;4992514;28;20525;-69
2022/03/31 07:33:03;;;;;;;29.75;4.55;;;18.10;99.90;;;;;;4990499;28;20030;-70
2022/03/31 07:35:32;;;;;;;22.48;4.43;;;18.10;99.90;;;;;;4978866;28;20039;-69
2022/03/31 07:38:03;;;;;;;20.73;4.82;;;18.30;99.90;;;;;;4979804;28;20041;-70
2022/03/31 07:40:31;;;;;;;21.65;4.80;;;18.30;99.90;;;;;;4985231;28;20034;-69
2022/03/31 07:42:59;;;;;;;18.38;3.95;;;18.20;99.90;;;;;;4978827;28;20031;-69
2022/03/31 07:45:28;;;;;;;20.42;4.03;;;18.30;99.90;;;;;;5003762;28;20142;-69
2022/03/31 07:47:55;;;;;;;18.17;3.40;;;18.40;99.90;;;;;;4989862;28;20035;-71
2022/03/31 07:50:23;;;;;;;23.35;4.45;;;18.40;99.90;;;;;;4991562;28;20507;-69
2022/03/31 07:52:51;;;;;;;21.05;3.72;;;18.40;99.90;;;;;;4990100;28;20054;-69
2022/03/31 07:55:19;;;;;;;21.65;4.22;;;18.40;99.90;;;;;;4975700;28;20031;-69
2022/03/31 07:57:48;;;;;;;23.02;4.25;;;18.40;99.90;;;;;;4988361;28;20541;-69
2022/03/31 08:00:17;;;;;;;23.42;4.60;;;18.40;99.90;;;;;;4991591;28;20034;-68
2022/03/31 08:02:47;;;;;;;24.15;4.57;;;18.40;99.90;;;;;;4981084;28;20035;-70
2022/03/31 08:05:18;;;;;;;20.40;4.00;;;18.40;99.90;;;;;;4975584;28;20027;-69
2022/03/31 08:07:46;;;;;;;16.48;4.53;;;18.40;99.90;;;;;;4976604;28;20428;-69
2022/03/31 08:10:15;;;;;;;19.60;4.03;;;18.50;99.90;;;;;;4975484;28;20035;-69
2022/03/31 08:12:44;;;;;;;30.33;7.43;;;18.50;99.90;;;;;;4987594;28;20072;-69
2022/03/31 08:15:14;;;;;;;19.48;4.35;;;18.40;99.90;;;;;;4994356;28;20387;-68
2022/03/31 08:17:42;;;;;;;21.13;4.38;;;18.40;99.90;;;;;;4991465;28;20026;-69
2022/03/31 08:20:11;;;;;;;18.90;3.58;;;18.40;99.90;;;;;;4995040;28;20026;-68
2022/03/31 08:22:39;;;;;;;17.85;3.65;;;18.30;99.90;;;;;;4992441;28;20042;-69
2022/03/31 08:25:09;;;;;;;20.92;3.75;;;18.50;99.90;;;;;;4994796;28;20467;-68
2022/03/31 08:27:37;;;;;;;25.92;4.25;;;18.30;99.90;;;;;;4993695;28;20030;-69
2022/03/31 08:30:06;;;;;;;22.90;4.15;;;18.40;99.90;;;;;;4994492;28;20100;-68
2022/03/31 08:32:36;;;;;;;13.32;3.83;;;18.40;99.90;;;;;;4991452;28;20034;-68
2022/03/31 08:35:05;;;;;;;14.32;2.13;;;18.40;99.90;;;;;;4990960;28;20023;-68
2022/03/31 08:37:32;;;;;;;18.95;3.55;;;18.30;99.90;;;;;;4981577;28;20038;-69
2022/03/31 08:40:00;;;;;;;16.50;3.30;;;18.30;99.90;;;;;;4981355;28;20085;-68
2022/03/31 08:42:27;;;;;;;11.13;2.72;;;18.30;99.90;;;;;;4993801;28;20611;-69
2022/03/31 08:44:57;;;;;;;18.10;3.22;;;18.30;99.90;;;;;;4991956;28;20103;-69
2022/03/31 08:47:26;;;;;;;18.45;3.40;;;18.40;99.90;;;;;;4990544;28;20121;-69
2022/03/31 08:49:57;;;;;;;14.52;2.28;;;18.40;99.90;;;;;;4993194;28;20508;-68
2022/03/31 08:52:25;;;;;;;16.45;3.30;;;18.40;99.90;;;;;;5007386;28;20026;-69
2022/03/31 08:54:52;;;;;;;11.02;2.75;;;18.30;99.90;;;;;;4980079;28;20491;-68
2022/03/31 08:57:20;;;;;;;11.02;1.63;;;18.30;99.90;;;;;;4976056;28;20045;-69
2022/03/31 08:59:48;;;;;;;11.20;2.53;;;18.40;99.90;;;;;;4974765;28;20038;-69
2022/03/31 09:02:28;;;;;;;14.52;2.63;;;18.40;99.90;;;;;;4987817;28;20402;-68
2022/03/31 09:05:03;;;;;;;13.80;3.25;;;18.40;99.90;;;;;;4993841;28;20144;-70
2022/03/31 09:07:31;;;;;;;15.98;2.28;;;18.40;99.90;;;;;;4982159;28;20098;-69
2022/03/31 09:09:58;;;;;;;13.07;2.50;;;18.40;99.90;;;;;;4977013;28;20026;-69
2022/03/31 09:12:35;;;;;;;12.55;2.83;;;18.40;99.90;;;;;;4983062;28;20027;-69
2022/03/31 09:15:10;;;;;;;11.57;2.28;;;18.40;99.90;;;;;;4974929;28;20063;-68
2022/03/31 09:17:37;;;;;;;12.73;2.67;;;18.30;99.90;;;;;;4985265;28;20046;-68
2022/03/31 09:20:05;;;;;;;12.50;2.28;;;18.50;99.90;;;;;;4980787;28;20046;-68
2022/03/31 09:22:48;;;;;;;8.65;1.77;;;18.60;99.90;;;;;;4989854;28;20067;-68
2022/03/31 09:25:27;;;;;;;14.57;2.08;;;18.60;99.90;;;;;;4984148;28;20029;-68
2022/03/31 09:27:56;;;;;;;19.42;3.50;;;18.50;99.90;;;;;;4989909;28;20037;-68
2022/03/31 09:30:24;;;;;;;28.58;5.65;;;18.50;99.90;;;;;;4989162;28;20030;-67
2022/03/31 09:32:54;;;;;;;14.88;3.25;;;18.30;99.90;;;;;;4987536;28;20022;-68
2022/03/31 09:35:23;;;;;;;20.13;3.83;;;18.10;99.90;;;;;;4991958;28;20072;-68
2022/03/31 09:37:55;;;;;;;18.90;3.40;;;18.00;99.90;;;;;;4990687;28;20120;-69
2022/03/31 09:40:23;;;;;;;21.45;3.58;;;17.90;99.90;;;;;;4990193;28;20475;-68
2022/03/31 09:42:58;;;;;;;22.95;3.63;;;17.90;99.90;;;;;;5002397;28;20110;-68
2022/03/31 09:45:36;;;;;;;13.88;2.85;;;18.00;99.90;;;;;;4989832;28;20046;-68
2022/03/31 09:48:04;;;;;;;17.65;3.92;;;18.00;99.90;;;;;;4982859;28;20046;-68
2022/03/31 09:50:36;;;;;;;22.13;4.03;;;18.00;99.90;;;;;;4982187;28;20037;-68
2022/03/31 09:53:04;;;;;;;18.75;3.55;;;18.10;99.90;;;;;;4988775;28;20080;-68
2022/03/31 09:55:33;;;;;;;15.80;3.78;;;18.00;99.90;;;;;;4981033;28;20049;-68
2022/03/31 09:58:02;;;;;;;17.33;2.95;;;18.00;99.90;;;;;;4986561;28;20026;-69
2022/03/31 10:00:30;;;;;;;15.07;3.42;;;17.90;99.90;;;;;;4979377;28;20023;-68
2022/03/31 10:02:59;;;;;;;13.55;2.65;;;18.00;99.90;;;;;;4986255;28;20041;-68
2022/03/31 10:05:28;;;;;;;23.50;3.35;;;18.00;99.90;;;;;;4983627;28;20026;-68
2022/03/31 10:07:56;;;;;;;11.95;2.25;;;18.00;99.90;;;;;;5002306;28;20173;-67
2022/03/31 10:10:24;;;;;;;15.07;2.63;;;18.00;99.90;;;;;;4983355;28;20158;-68
2022/03/31 10:13:18;;;;;;;19.52;4.15;;;18.00;99.90;;;;;;4985182;28;20490;-68
2022/03/31 10:15:46;;;;;;;19.25;3.67;;;18.10;99.90;;;;;;5001749;28;20025;-70
2022/03/31 10:18:15;;;;;;;16.67;2.92;;;18.10;99.90;;;;;;4984481;28;20062;-69
2022/03/31 10:20:54;;;;;;;18.05;2.90;;;18.10;99.90;;;;;;4990831;28;20030;-68
2022/03/31 10:26:07;;;;;;;13.93;1.90;;;18.20;99.90;;;;;;4986003;28;20117;-68
2022/03/31 10:28:34;;;;;;;14.93;3.08;;;18.20;99.90;;;;;;4984549;28;20089;-68
2022/03/31 10:31:09;;;;;;;14.73;3.13;;;18.10;99.90;;;;;;4986315;28;20034;-68
2022/03/31 10:33:42;;;;;;;15.75;3.22;;;18.10;99.90;;;;;;4986935;28;20022;-68
2022/03/31 10:36:14;;;;;;;20.38;3.13;;;18.10;99.90;;;;;;4992462;28;20030;-69
2022/03/31 10:38:57;;;;;;;16.52;2.78;;;17.80;99.90;;;;;;4990729;28;20015;-68
2022/03/31 10:41:44;;;;;;;20.33;3.35;;;17.40;99.90;;;;;;4989694;28;20441;-69
2022/03/31 10:44:14;;;;;;;19.20;3.22;;;17.20;99.90;;;;;;4987073;28;20186;-69
2022/03/31 10:46:44;;;;;;;17.98;2.80;;;17.10;99.90;;;;;;4991879;28;20455;-69
2022/03/31 10:49:17;;;;;;;17.95;3.38;;;17.10;99.90;;;;;;5000232;28;20109;-69
2022/03/31 10:51:46;;;;;;;16.88;3.08;;;17.00;99.90;;;;;;4987721;28;20558;-70
2022/03/31 10:54:28;;;;;;;15.93;2.63;;;17.00;99.90;;;;;;4995120;28;20581;-69
2022/03/31 10:57:13;;;;;;;17.73;3.60;;;17.00;99.90;;;;;;4991274;28;20042;-69
2022/03/31 10:59:43;;;;;;;13.95;2.30;;;17.00;99.90;;;;;;4988293;28;20033;-68
2022/03/31 11:02:17;;;;;;;13.07;2.88;;;16.90;99.90;;;;;;4991685;28;20042;-68
2022/03/31 11:04:56;;;;;;;15.65;2.33;;;17.00;99.90;;;;;;4983738;28;20038;-68
2022/03/31 11:07:25;;;;;;;13.38;2.20;;;16.90;99.90;;;;;;5006979;28;20517;-67
2022/03/31 11:10:09;;;;;;;24.15;3.25;;;16.90;99.90;;;;;;4986068;28;20407;-68
2022/03/31 11:12:37;;;;;;;21.20;3.63;;;16.90;99.90;;;;;;4989525;28;20027;-68
2022/03/31 11:15:12;;;;;;;15.90;2.17;;;16.80;99.90;;;;;;4995644;28;20022;-67
2022/03/31 11:17:42;;;;;;;11.63;2.60;;;16.80;99.90;;;;;;4985922;28;20023;-68
2022/03/31 11:20:23;;;;;;;17.67;2.17;;;16.80;99.90;;;;;;4995032;28;20471;-67
2022/03/31 11:22:55;;;;;;;18.77;3.60;;;16.80;99.90;;;;;;4989116;28;20030;-67
2022/03/31 11:25:24;;;;;;;15.73;2.75;;;16.80;99.90;;;;;;4990733;28;20101;-67
2022/03/31 11:27:53;;;;;;;16.20;3.85;;;16.80;99.90;;;;;;4988473;28;20030;-67
2022/03/31 11:30:22;;;;;;;15.57;3.88;;;16.80;99.90;;;;;;4995344;28;20049;-67
2022/03/31 11:32:55;;;;;;;17.35;3.22;;;16.90;99.90;;;;;;4989653;28;20029;-67
2022/03/31 11:35:24;;;;;;;14.00;3.13;;;16.90;99.90;;;;;;4989622;28;20027;-67
2022/03/31 11:37:54;;;;;;;16.33;2.78;;;16.80;99.90;;;;;;4983276;28;20440;-67
2022/03/31 11:40:24;;;;;;;17.75;2.92;;;16.90;99.90;;;;;;4993156;28;20391;-67
2022/03/31 11:42:54;;;;;;;15.93;3.05;;;16.80;99.90;;;;;;4987773;28;20025;-68
2022/03/31 11:45:34;;;;;;;18.08;2.63;;;16.80;99.90;;;;;;4990353;28;20084;-66
2022/03/31 11:48:06;;;;;;;13.80;2.85;;;16.90;99.90;;;;;;4989503;28;20489;-67
2022/03/31 11:50:36;;;;;;;24.20;2.90;;;16.90;99.90;;;;;;4990644;28;20023;-68
2022/03/31 11:53:15;;;;;;;12.43;2.63;;;16.90;99.90;;;;;;4991798;28;20431;-67
2022/03/31 11:55:42;;;;;;;17.60;2.60;;;16.80;99.90;;;;;;4992801;28;20105;-68
2022/03/31 11:58:10;;;;;;;16.67;3.15;;;16.80;99.90;;;;;;4994357;28;20142;-68
2022/03/31 12:00:48;;;;;;;17.27;2.25;;;16.80;99.90;;;;;;4994461;28;20479;-67
2022/03/31 12:03:17;;;;;;;19.52;2.47;;;16.70;99.90;;;;;;4990158;28;20491;-67
2022/03/31 12:06:07;;;;;;;19.88;3.20;;;16.70;99.90;;;;;;5007943;28;20054;-67
2022/03/31 12:08:38;;;;;;;14.98;2.33;;;16.60;99.90;;;;;;4995615;28;20105;-67
2022/03/31 12:11:06;;;;;;;19.10;2.80;;;16.60;99.90;;;;;;4990556;28;20031;-67
2022/03/31 12:13:45;;;;;;;16.83;2.50;;;16.60;99.90;;;;;;4992623;28;20066;-68
2022/03/31 12:16:13;;;;;;;13.95;1.38;;;16.60;99.90;;;;;;4990832;28;20495;-66
2022/03/31 12:18:42;;;;;;;8.77;2.22;;;16.60;99.90;;;;;;4988302;28;20026;-67
2022/03/31 12:21:09;;;;;;;15.48;2.42;;;16.40;99.90;;;;;;4991057;28;20026;-67
2022/03/31 12:23:44;;;;;;;17.42;3.03;;;16.20;99.90;;;;;;4990521;28;20034;-67
2022/03/31 12:26:16;;;;;;;12.77;1.50;;;16.00;99.90;;;;;;4989208;28;20030;-68
2022/03/31 12:28:45;;;;;;;16.48;2.70;;;16.00;99.90;;;;;;4995087;28;20037;-67
2022/03/31 12:31:29;;;;;;;7.95;1.60;;;16.10;99.90;;;;;;4994644;28;20065;-67
2022/03/31 12:33:58;;;;;;;12.63;2.28;;;16.10;99.90;;;;;;4992996;28;20026;-67
2022/03/31 12:36:28;;;;;;;8.88;1.80;;;16.20;99.90;;;;;;4991213;28;20054;-67
2022/03/31 12:38:57;;;;;;;14.65;2.55;;;16.20;99.90;;;;;;4992897;28;20026;-68
2022/03/31 12:41:33;;;;;;;13.98;2.30;;;16.30;99.90;;;;;;5005964;28;20026;-67
2022/03/31 12:44:07;;;;;;;14.38;2.15;;;16.30;99.90;;;;;;4989460;28;20034;-67
2022/03/31 12:46:54;;;;;;;;;;;16.30;99.90;;;;;;5004107;28;20554;-68
2022/03/31 12:49:24;;;;;;;11.95;1.67;;;16.30;99.90;;;;;;4990535;28;19949;-67
2022/03/31 12:51:59;;;;;;;9.95;2.03;;;16.20;99.90;;;;;;4988110;28;20041;-68
2022/03/31 12:54:34;;;;;;;11.68;2.42;;;16.20;99.90;;;;;;4992682;28;20018;-67